createdAt,value
2018-07-22T00:00:35.980Z,100527.34
2018-07-22T00:03:04.447Z,100528.27
2018-07-22T00:05:32.981Z,100525.65
2018-07-22T00:08:01.826Z,100527.02
2018-07-22T00:10:31.276Z,100533.22
2018-07-22T00:13:00.736Z,100529.77
2018-07-22T00:15:29.610Z,100524.09
2018-07-22T00:17:58.441Z,100528.20
2018-07-22T00:20:27.161Z,100528.29
2018-07-22T00:22:55.977Z,100532.72
2018-07-22T00:25:24.452Z,100524.80
2018-07-22T00:27:53.106Z,100523.98
2018-07-22T00:30:22.341Z,100531.17
2018-07-22T00:32:51.214Z,100532.13
2018-07-22T00:35:20.281Z,100537.08
2018-07-22T00:37:49.321Z,100540.22
2018-07-22T00:40:18.001Z,100546.00
2018-07-22T00:42:46.848Z,100547.38
2018-07-22T00:45:15.684Z,100544.33
2018-07-22T00:47:44.205Z,100546.55
2018-07-22T00:50:13.578Z,100551.92
2018-07-22T00:52:42.963Z,100549.30
2018-07-22T00:55:11.437Z,100558.21
2018-07-22T00:57:39.930Z,100554.27
2018-07-22T01:00:10.090Z,100555.62
2018-07-22T01:02:38.596Z,100552.13
2018-07-22T01:05:07.316Z,100552.16
2018-07-22T01:07:36.614Z,100544.25
2018-07-22T01:10:05.417Z,100547.84
2018-07-22T01:12:34.157Z,100549.19
2018-07-22T01:15:03.063Z,100546.13
2018-07-22T01:17:32.113Z,100537.28
2018-07-22T01:20:00.830Z,100539.95
2018-07-22T01:22:29.654Z,100539.99
2018-07-22T01:24:58.455Z,100540.02
2018-07-22T01:27:27.189Z,100538.27
2018-07-22T01:29:56.867Z,100538.29
2018-07-22T01:32:25.320Z,100534.33
2018-07-22T01:34:54.229Z,100535.27
2018-07-22T01:37:23.557Z,100398.86
2018-07-22T01:39:51.993Z,100538.37
2018-07-22T01:42:20.552Z,100530.88
2018-07-22T01:44:49.654Z,100525.59
2018-07-22T01:47:18.167Z,100535.79
2018-07-22T01:49:47.267Z,100512.05
2018-07-22T01:52:16.220Z,100533.15
2018-07-22T01:54:45.208Z,100535.83
2018-07-22T01:57:13.669Z,100537.22
2018-07-22T01:59:43.309Z,100535.48
2018-07-22T02:02:12.138Z,100524.88
2018-07-22T02:04:40.589Z,100527.57
2018-07-22T02:07:09.459Z,100528.93
2018-07-22T02:09:38.459Z,100528.50
2018-07-22T02:12:06.932Z,100534.70
2018-07-22T02:14:36.119Z,100540.00
2018-07-22T02:17:04.637Z,100533.84
2018-07-22T02:19:33.752Z,100536.55
2018-07-22T02:22:02.390Z,100542.77
2018-07-22T02:24:30.853Z,100537.95
2018-07-22T02:26:59.649Z,100531.35
2018-07-22T02:29:28.849Z,100535.33
2018-07-22T02:31:57.325Z,100532.25
2018-07-22T02:34:25.820Z,100521.20
2018-07-22T02:36:54.914Z,100526.52
2018-07-22T02:39:23.833Z,100524.33
2018-07-22T02:41:52.321Z,100523.00
2018-07-22T02:44:21.435Z,100530.08
2018-07-22T02:46:49.907Z,100530.11
2018-07-22T02:49:18.401Z,100537.19
2018-07-22T02:51:47.234Z,100536.75
2018-07-22T02:54:15.785Z,100538.54
2018-07-22T02:56:44.249Z,100542.52
2018-07-22T02:59:13.005Z,100539.88
2018-07-22T03:01:41.792Z,100535.03
2018-07-22T03:04:10.508Z,100546.95
2018-07-22T03:06:39.452Z,100538.13
2018-07-22T03:09:09.180Z,100547.41
2018-07-22T03:11:38.066Z,100550.50
2018-07-22T03:14:07.001Z,100541.68
2018-07-22T03:16:35.531Z,100548.77
2018-07-22T03:19:04.590Z,100548.77
2018-07-22T03:21:33.356Z,100545.25
2018-07-22T03:24:01.962Z,100539.95
2018-07-22T03:26:31.137Z,100547.01
2018-07-22T03:28:59.969Z,100539.06
2018-07-22T03:31:28.417Z,100544.80
2018-07-22T03:33:56.875Z,100536.43
2018-07-22T03:36:25.725Z,100529.37
2018-07-22T03:38:54.490Z,100535.54
2018-07-22T03:41:23.661Z,100532.90
2018-07-22T03:43:53.009Z,100532.89
2018-07-22T03:46:21.857Z,100535.55
2018-07-22T03:48:50.314Z,100527.16
2018-07-22T03:51:19.142Z,100530.25
2018-07-22T03:53:47.869Z,100523.62
2018-07-22T03:56:16.627Z,100527.59
2018-07-22T03:58:45.726Z,100526.70
2018-07-22T04:01:14.297Z,100524.48
2018-07-22T04:03:42.959Z,100520.06
2018-07-22T04:06:11.792Z,100516.95
2018-07-22T04:08:40.617Z,100515.61
2018-07-22T04:11:09.180Z,100524.43
2018-07-22T04:13:37.935Z,100518.67
2018-07-22T04:16:06.710Z,100525.72
2018-07-22T04:18:39.817Z,100528.37
2018-07-22T04:21:08.522Z,100524.36
2018-07-22T04:23:37.321Z,100527.88
2018-07-22T04:26:05.789Z,100537.59
2018-07-22T04:28:34.576Z,100538.45
2018-07-22T04:31:03.457Z,100539.74
2018-07-22T04:33:31.921Z,100541.98
2018-07-22T04:36:00.579Z,100549.04
2018-07-22T04:38:29.025Z,100532.67
2018-07-22T04:40:57.540Z,100546.36
2018-07-22T04:43:26.941Z,100546.77
2018-07-22T04:45:55.396Z,100544.98
2018-07-22T04:48:24.750Z,100554.19
2018-07-22T04:50:54.370Z,100558.05
2018-07-22T04:53:23.384Z,100549.52
2018-07-22T04:55:52.205Z,100551.28
2018-07-22T04:58:21.038Z,100546.86
2018-07-22T05:00:50.353Z,100546.84
2018-07-22T05:03:19.094Z,100555.70
2018-07-22T05:05:48.042Z,100557.91
2018-07-22T05:08:16.748Z,100572.50
2018-07-22T05:10:45.482Z,100564.11
2018-07-22T05:13:14.393Z,100565.42
2018-07-22T05:15:42.827Z,100567.19
2018-07-22T05:18:11.507Z,100552.16
2018-07-22T05:20:40.737Z,100562.69
2018-07-22T05:23:09.331Z,100556.88
2018-07-22T05:25:38.137Z,100562.56
2018-07-22T05:28:06.842Z,100559.41
2018-07-22T05:30:35.346Z,100558.95
2018-07-22T05:33:03.794Z,100560.59
2018-07-22T05:35:32.765Z,100561.75
2018-07-22T05:38:01.229Z,100562.55
2018-07-22T05:40:29.777Z,100559.97
2018-07-22T05:42:58.815Z,100563.03
2018-07-22T05:45:27.814Z,100569.24
2018-07-22T05:47:56.361Z,100558.14
2018-07-22T05:50:25.165Z,100565.69
2018-07-22T05:52:54.256Z,100565.25
2018-07-22T05:55:22.877Z,100562.06
2018-07-22T05:57:52.129Z,100563.17
2018-07-22T06:00:20.665Z,100563.44
2018-07-22T06:02:49.413Z,100580.13
2018-07-22T06:05:18.085Z,100568.20
2018-07-22T06:07:46.549Z,100570.02
2018-07-22T06:10:15.424Z,100580.48
2018-07-22T06:12:43.967Z,100569.74
2018-07-22T06:15:12.409Z,100571.84
2018-07-22T06:17:41.549Z,100576.73
2018-07-22T06:20:10.354Z,100571.50
2018-07-22T06:22:39.048Z,100571.99
2018-07-22T06:25:08.558Z,100583.92
2018-07-22T06:27:37.705Z,100575.06
2018-07-22T06:30:06.733Z,100583.80
2018-07-22T06:32:35.527Z,100576.61
2018-07-22T06:35:05.188Z,100572.64
2018-07-22T06:37:34.000Z,100565.94
2018-07-22T06:40:02.741Z,100563.63
2018-07-22T06:42:31.631Z,100568.91
2018-07-22T06:45:00.107Z,100564.89
2018-07-22T06:47:29.193Z,100563.44
2018-07-22T06:49:58.161Z,100570.13
2018-07-22T06:52:27.037Z,100576.36
2018-07-22T06:54:55.536Z,100570.91
2018-07-22T06:57:24.225Z,100577.06
2018-07-22T06:59:53.364Z,100573.42
2018-07-22T07:02:23.097Z,100573.45
2018-07-22T07:04:51.914Z,100572.95
2018-07-22T07:07:20.700Z,100588.12
2018-07-22T07:09:49.433Z,100583.86
2018-07-22T07:12:17.885Z,100582.03
2018-07-22T07:14:46.768Z,100585.48
2018-07-22T07:17:15.250Z,100583.98
2018-07-22T07:19:43.718Z,100593.55
2018-07-22T07:22:12.513Z,100592.80
2018-07-22T07:24:41.171Z,100593.94
2018-07-22T07:27:10.830Z,100586.02
2018-07-22T07:29:39.667Z,100583.50
2018-07-22T07:32:08.225Z,100586.73
2018-07-22T07:34:37.117Z,100589.06
2018-07-22T07:37:06.772Z,100583.55
2018-07-22T07:39:35.518Z,100578.43
2018-07-22T07:42:04.330Z,100571.22
2018-07-22T07:44:33.393Z,100574.89
2018-07-22T07:47:01.909Z,100580.64
2018-07-22T07:49:30.666Z,100574.62
2018-07-22T07:51:59.537Z,100571.80
2018-07-22T07:54:28.055Z,100579.69
2018-07-22T07:56:56.724Z,100571.05
2018-07-22T07:59:25.269Z,100573.16
2018-07-22T08:01:53.980Z,100574.14
2018-07-22T08:04:22.854Z,100565.97
2018-07-22T08:06:51.729Z,100566.11
2018-07-22T08:09:20.349Z,100572.06
2018-07-22T08:11:48.874Z,100561.64
2018-07-22T08:14:17.276Z,100563.46
2018-07-22T08:16:45.805Z,100566.78
2018-07-22T08:19:14.639Z,100574.39
2018-07-22T08:21:43.228Z,100567.55
2018-07-22T08:24:11.777Z,100571.00
2018-07-22T08:26:40.429Z,100567.05
2018-07-22T08:29:31.381Z,100560.30
2018-07-22T08:32:00.550Z,100559.21
2018-07-22T08:34:29.136Z,100564.62
2018-07-22T08:36:57.677Z,100564.41
2018-07-22T08:39:27.801Z,100564.97
2018-07-22T08:41:57.090Z,100557.50
2018-07-22T08:44:25.650Z,100554.01
2018-07-22T08:46:55.010Z,100559.05
2018-07-22T08:49:24.582Z,100562.78
2018-07-22T08:51:53.257Z,100562.08
2018-07-22T08:54:21.733Z,100553.94
2018-07-22T08:56:50.209Z,100560.00
2018-07-22T08:59:18.670Z,100549.25
2018-07-22T09:01:48.357Z,100549.98
2018-07-22T09:04:17.169Z,100551.09
2018-07-22T09:06:45.916Z,100543.19
2018-07-22T09:09:14.722Z,100554.57
2018-07-22T09:11:43.343Z,100556.92
2018-07-22T09:14:11.881Z,100557.96
2018-07-22T09:16:40.775Z,100561.63
2018-07-22T09:19:09.602Z,100554.09
2018-07-22T09:21:38.817Z,100546.77
2018-07-22T09:24:07.839Z,100549.87
2018-07-22T09:26:36.256Z,100554.01
2018-07-22T09:29:07.112Z,100556.08
2018-07-22T09:31:35.618Z,100558.13
2018-07-22T09:34:04.182Z,100564.83
2018-07-22T09:36:32.868Z,100556.00
2018-07-22T09:39:01.620Z,100553.58
2018-07-22T09:41:30.221Z,100557.80
2018-07-22T09:43:58.945Z,100553.56
2018-07-22T09:46:27.591Z,100556.16
2018-07-22T09:48:56.026Z,100560.01
2018-07-22T09:51:25.480Z,100562.20
2018-07-22T09:53:55.370Z,100556.53
2018-07-22T09:56:24.521Z,100563.69
2018-07-22T09:58:52.989Z,100556.23
2018-07-22T10:01:21.446Z,100575.73
2018-07-22T10:03:50.229Z,100561.55
2018-07-22T10:06:18.897Z,100561.84
2018-07-22T10:08:47.398Z,100562.59
2018-07-22T10:11:16.094Z,100562.87
2018-07-22T10:13:44.692Z,100512.41
2018-07-22T10:16:13.376Z,100557.23
2018-07-22T10:18:42.762Z,100562.78
2018-07-22T10:21:11.650Z,100560.38
2018-07-22T10:23:40.495Z,100559.08
2018-07-22T10:26:09.818Z,100558.73
2018-07-22T10:28:38.687Z,100559.36
2018-07-22T10:31:07.224Z,100560.17
2018-07-22T10:33:35.749Z,100563.28
2018-07-22T10:36:04.733Z,100561.25
2018-07-22T10:38:33.372Z,100555.98
2018-07-22T10:41:03.050Z,100563.75
2018-07-22T10:43:32.090Z,100553.33
2018-07-22T10:46:01.024Z,100552.02
2018-07-22T10:48:30.106Z,100553.48
2018-07-22T10:50:58.724Z,100553.02
2018-07-22T10:53:27.361Z,100552.25
2018-07-22T10:55:56.141Z,100550.34
2018-07-22T10:58:24.762Z,100546.61
2018-07-22T11:00:54.601Z,100553.34
2018-07-22T11:03:23.523Z,100552.99
2018-07-22T11:05:52.031Z,100546.73
2018-07-22T11:08:20.922Z,100546.00
2018-07-22T11:10:50.278Z,100558.06
2018-07-22T11:13:19.810Z,100555.14
2018-07-22T11:15:48.566Z,100550.41
2018-07-22T11:18:17.413Z,100554.12
2018-07-22T11:20:45.973Z,100553.14
2018-07-22T11:23:14.807Z,100549.41
2018-07-22T11:25:43.661Z,100553.02
2018-07-22T11:28:12.714Z,100555.20
2018-07-22T11:30:42.462Z,100558.25
2018-07-22T11:33:11.276Z,100551.38
2018-07-22T11:35:39.770Z,100553.47
2018-07-22T11:38:08.343Z,100563.43
2018-07-22T11:40:36.794Z,100563.66
2018-07-22T11:43:05.284Z,100564.05
2018-07-22T11:45:34.325Z,100568.31
2018-07-22T11:48:03.008Z,100567.14
2018-07-22T11:50:31.528Z,100552.80
2018-07-22T11:52:59.982Z,100575.16
2018-07-22T11:55:28.867Z,100562.61
2018-07-22T11:57:57.563Z,100559.41
2018-07-22T12:00:26.303Z,100560.59
2018-07-22T12:02:55.399Z,100562.80
2018-07-22T12:05:24.672Z,100554.17
2018-07-22T12:07:53.574Z,100552.26
2018-07-22T12:10:22.400Z,100580.08
2018-07-22T12:12:50.897Z,100563.07
2018-07-22T12:15:19.963Z,100567.54
2018-07-22T12:17:48.774Z,100559.44
2018-07-22T12:20:17.469Z,100562.77
2018-07-22T12:22:46.133Z,100562.31
2018-07-22T12:25:14.672Z,100566.67
2018-07-22T12:27:43.505Z,100550.70
2018-07-22T12:30:12.470Z,100553.14
2018-07-22T12:32:40.923Z,100561.14
2018-07-22T12:35:10.514Z,100557.10
2018-07-22T12:37:40.046Z,100556.53
2018-07-22T12:40:08.478Z,100548.25
2018-07-22T12:42:36.967Z,100550.87
2018-07-22T12:45:06.636Z,100545.58
2018-07-22T12:47:35.461Z,100535.48
2018-07-22T12:50:04.074Z,100547.70
2018-07-22T12:52:32.812Z,100547.41
2018-07-22T12:55:01.268Z,100543.91
2018-07-22T12:57:29.776Z,100546.22
2018-07-22T12:59:59.058Z,100551.38
2018-07-22T13:02:27.558Z,100540.09
2018-07-22T13:04:56.029Z,100545.94
2018-07-22T13:07:24.793Z,100546.85
2018-07-22T13:09:53.565Z,100538.84
2018-07-22T13:12:22.125Z,100544.41
2018-07-22T13:14:50.981Z,100540.72
2018-07-22T13:17:20.443Z,100537.90
2018-07-22T13:19:48.944Z,100535.83
2018-07-22T13:22:18.417Z,100527.80
2018-07-22T13:24:47.278Z,100524.16
2018-07-22T13:27:16.001Z,100531.64
2018-07-22T13:29:45.022Z,100536.86
2018-07-22T13:32:13.619Z,100539.77
2018-07-22T13:34:42.681Z,100536.48
2018-07-22T13:37:11.310Z,100533.38
2018-07-22T13:39:39.998Z,100542.57
2018-07-22T13:42:09.234Z,100531.91
2018-07-22T13:44:38.599Z,100527.07
2018-07-22T13:47:07.938Z,100524.59
2018-07-22T13:49:36.402Z,100528.55
2018-07-22T13:52:05.081Z,100524.09
2018-07-22T13:54:33.946Z,100516.80
2018-07-22T13:57:02.675Z,100520.52
2018-07-22T13:59:31.569Z,100519.33
2018-07-22T14:02:00.129Z,100527.77
2018-07-22T14:04:28.857Z,100529.02
2018-07-22T14:06:57.300Z,100532.44
2018-07-22T14:09:25.797Z,100521.05
2018-07-22T14:11:54.536Z,100521.72
2018-07-22T14:14:23.084Z,100513.73
2018-07-22T14:16:51.549Z,100516.30
2018-07-22T14:19:20.557Z,100522.90
2018-07-22T14:21:49.006Z,100517.84
2018-07-22T14:24:17.816Z,100512.25
2018-07-22T14:26:46.609Z,100518.88
2018-07-22T14:29:15.077Z,100515.77
2018-07-22T14:31:44.029Z,100520.74
2018-07-22T14:34:12.987Z,100524.64
2018-07-22T14:36:41.776Z,100518.06
2018-07-22T14:39:12.429Z,100524.86
2018-07-22T14:41:41.357Z,100525.36
2018-07-22T14:44:09.857Z,100515.36
2018-07-22T14:46:38.534Z,100525.29
2018-07-22T14:49:07.177Z,100527.69
2018-07-22T14:51:35.619Z,100528.03
2018-07-22T14:54:04.423Z,100531.75
2018-07-22T14:56:33.211Z,100507.73
2018-07-22T14:59:01.953Z,100534.47
2018-07-22T15:01:30.396Z,100524.94
2018-07-22T15:03:59.717Z,100528.11
2018-07-22T15:06:28.460Z,100529.63
2018-07-22T15:08:56.965Z,100537.78
2018-07-22T15:11:25.849Z,100537.23
2018-07-22T15:13:55.491Z,100526.94
2018-07-22T15:16:24.848Z,100534.84
2018-07-22T15:18:53.557Z,100537.23
2018-07-22T15:21:21.993Z,100534.52
2018-07-22T15:23:50.648Z,100533.58
2018-07-22T15:26:19.122Z,100528.91
2018-07-22T15:28:48.144Z,100537.45
2018-07-22T15:31:16.769Z,100531.83
2018-07-22T15:33:45.217Z,100533.34
2018-07-22T15:36:13.997Z,100526.06
2018-07-22T15:38:42.765Z,100516.72
2018-07-22T15:41:11.213Z,100526.66
2018-07-22T15:43:39.665Z,100524.20
2018-07-22T15:46:08.569Z,100518.03
2018-07-22T15:48:37.731Z,100520.22
2018-07-22T15:51:07.050Z,100529.08
2018-07-22T15:53:35.550Z,100519.95
2018-07-22T15:56:04.636Z,100526.37
2018-07-22T15:58:33.109Z,100521.85
2018-07-22T16:01:01.657Z,100521.58
2018-07-22T16:03:30.425Z,100524.57
2018-07-22T16:05:59.305Z,100528.55
2018-07-22T16:08:27.798Z,100524.41
2018-07-22T16:10:56.590Z,100516.10
2018-07-22T16:13:25.412Z,100515.57
2018-07-22T16:15:54.773Z,100514.34
2018-07-22T16:18:23.525Z,100518.12
2018-07-22T16:20:52.483Z,100522.06
2018-07-22T16:23:21.405Z,100519.23
2018-07-22T16:25:49.933Z,100521.95
2018-07-22T16:28:18.751Z,100521.28
2018-07-22T16:30:47.465Z,100526.92
2018-07-22T16:33:15.955Z,100527.11
2018-07-22T16:35:45.094Z,100528.06
2018-07-22T16:38:13.666Z,100529.21
2018-07-22T16:40:42.333Z,100523.95
2018-07-22T16:43:10.761Z,100528.42
2018-07-22T16:45:39.417Z,100529.56
2018-07-22T16:48:08.061Z,100532.75
2018-07-22T16:50:36.927Z,100533.20
2018-07-22T16:53:05.629Z,100530.98
2018-07-22T16:55:34.506Z,100528.00
2018-07-22T16:58:03.006Z,100535.43
2018-07-22T17:00:31.550Z,100537.78
2018-07-22T17:02:59.981Z,100536.92
2018-07-22T17:05:28.457Z,100535.39
2018-07-22T17:07:57.049Z,100542.91
2018-07-22T17:10:26.836Z,100543.72
2018-07-22T17:12:55.528Z,100545.33
2018-07-22T17:15:24.000Z,100548.34
2018-07-22T17:17:53.513Z,100556.94
2018-07-22T17:20:22.520Z,100556.23
2018-07-22T17:22:51.563Z,100555.64
2018-07-22T17:25:20.005Z,100556.31
2018-07-22T17:27:49.217Z,100562.70
2018-07-22T17:30:17.740Z,100568.75
2018-07-22T17:32:46.197Z,100564.61
2018-07-22T17:35:15.457Z,100573.73
2018-07-22T17:37:43.981Z,100571.42
2018-07-22T17:40:12.441Z,100572.31
2018-07-22T17:42:41.168Z,100572.20
2018-07-22T17:45:10.012Z,100580.69
2018-07-22T17:47:39.485Z,100576.33
2018-07-22T17:50:08.134Z,100571.45
2018-07-22T17:52:36.603Z,100579.31
2018-07-22T17:55:05.373Z,100578.64
2018-07-22T17:57:34.111Z,100582.56
2018-07-22T18:00:02.776Z,100586.48
2018-07-22T18:02:31.213Z,100587.84
2018-07-22T18:04:59.959Z,100588.79
2018-07-22T18:07:28.809Z,100592.97
2018-07-22T18:09:57.571Z,100595.21
2018-07-22T18:12:26.597Z,100597.61
2018-07-22T18:14:55.482Z,100599.09
2018-07-22T18:17:24.389Z,100604.25
2018-07-22T18:19:52.865Z,100603.37
2018-07-22T18:22:21.373Z,100603.78
2018-07-22T18:24:50.197Z,100610.98
2018-07-22T18:27:19.026Z,100615.20
2018-07-22T18:29:47.549Z,100614.58
2018-07-22T18:32:16.237Z,100622.42
2018-07-22T18:34:45.093Z,100627.24
2018-07-22T18:37:14.086Z,100626.52
2018-07-22T18:39:42.474Z,100628.45
2018-07-22T18:42:11.339Z,100625.55
2018-07-22T18:44:39.811Z,100632.50
2018-07-22T18:47:08.293Z,100636.89
2018-07-22T18:49:37.374Z,100640.73
2018-07-22T18:52:06.137Z,100643.08
2018-07-22T18:54:34.566Z,100648.03
2018-07-22T18:57:03.420Z,100642.27
2018-07-22T18:59:31.869Z,100646.55
2018-07-22T19:02:00.449Z,100649.05
2018-07-22T19:04:29.317Z,100648.75
2018-07-22T19:06:58.261Z,100645.59
2018-07-22T19:09:26.770Z,100652.30
2018-07-22T19:11:56.242Z,100649.53
2018-07-22T19:14:25.117Z,100650.16
2018-07-22T19:16:53.742Z,100655.69
2018-07-22T19:19:22.437Z,100660.28
2018-07-22T19:21:51.707Z,100657.47
2018-07-22T19:24:20.816Z,100654.58
2018-07-22T19:26:49.425Z,100652.05
2018-07-22T19:29:18.770Z,100665.52
2018-07-22T19:31:47.219Z,100663.50
2018-07-22T19:34:16.013Z,100672.06
2018-07-22T19:36:44.901Z,100667.27
2018-07-22T19:39:14.117Z,100666.02
2018-07-22T19:41:42.800Z,100674.06
2018-07-22T19:44:11.301Z,100675.97
2018-07-22T19:46:39.768Z,100672.05
2018-07-22T19:49:08.226Z,100679.27
2018-07-22T19:51:37.245Z,100685.19
2018-07-22T19:54:06.000Z,100685.75
2018-07-22T19:56:34.595Z,100689.87
2018-07-22T19:59:03.212Z,100692.18
2018-07-22T20:01:35.365Z,100675.14
2018-07-22T20:04:04.697Z,100696.25
2018-07-22T20:06:33.205Z,100698.98
2018-07-22T20:09:01.645Z,100694.55
2018-07-22T20:11:30.613Z,100700.83
2018-07-22T20:13:59.278Z,100693.71
2018-07-22T20:16:27.791Z,100697.36
2018-07-22T20:18:56.661Z,100700.64
2018-07-22T20:21:25.877Z,100699.03
2018-07-22T20:23:54.932Z,100697.84
2018-07-22T20:26:23.901Z,100699.33
2018-07-22T20:28:52.741Z,100699.46
2018-07-22T20:31:21.191Z,100701.49
2018-07-22T20:33:49.718Z,100702.22
2018-07-22T20:36:18.190Z,100702.40
2018-07-22T20:38:47.137Z,100703.91
2018-07-22T20:41:16.210Z,100709.77
2018-07-22T20:43:45.162Z,100712.67
2018-07-22T20:46:13.942Z,100717.44
2018-07-22T20:48:42.557Z,100716.23
2018-07-22T20:51:11.108Z,100711.97
2018-07-22T20:53:39.911Z,100712.67
2018-07-22T20:56:08.405Z,100720.52
2018-07-22T20:58:36.967Z,100719.38
2018-07-22T21:01:05.708Z,100717.32
2018-07-22T21:03:34.584Z,100723.20
2018-07-22T21:06:03.035Z,100719.66
2018-07-22T21:08:32.385Z,100722.83
2018-07-22T21:11:00.857Z,100720.77
2018-07-22T21:13:29.275Z,100723.17
2018-07-22T21:15:58.513Z,100724.62
2018-07-22T21:18:27.582Z,100730.04
2018-07-22T21:20:57.891Z,100734.20
2018-07-22T21:23:26.584Z,100733.89
2018-07-22T21:25:56.321Z,100727.31
2018-07-22T21:28:24.759Z,100735.41
2018-07-22T21:30:53.434Z,100733.16
2018-07-22T21:33:21.961Z,100737.62
2018-07-22T21:35:50.920Z,100730.97
2018-07-22T21:38:19.369Z,100730.66
2018-07-22T21:40:47.829Z,100740.05
2018-07-22T21:43:16.715Z,100734.77
2018-07-22T21:45:45.188Z,100741.06
2018-07-22T21:48:13.932Z,100737.12
2018-07-22T21:50:43.465Z,100736.28
2018-07-22T21:53:12.046Z,100740.36
2018-07-22T21:55:40.547Z,100737.33
2018-07-22T21:58:09.104Z,100740.07
2018-07-22T22:00:43.221Z,100743.30
2018-07-22T22:03:11.699Z,100737.63
2018-07-22T22:05:40.514Z,100741.22
2018-07-22T22:08:09.223Z,100738.13
2018-07-22T22:10:38.170Z,100738.16
2018-07-22T22:13:06.957Z,100735.09
2018-07-22T22:15:35.430Z,100742.68
2018-07-22T22:18:05.521Z,100747.17
2018-07-22T22:20:34.261Z,100749.94
2018-07-22T22:23:02.745Z,100751.92
2018-07-22T22:25:31.565Z,100757.11
2018-07-22T22:28:00.557Z,100757.41
2018-07-22T22:30:29.417Z,100766.77
2018-07-22T22:32:57.885Z,100767.69
2018-07-22T22:35:26.513Z,100772.17
2018-07-22T22:37:55.305Z,100770.92
2018-07-22T22:40:24.281Z,100768.22
2018-07-22T22:42:52.803Z,100768.67
2018-07-22T22:45:21.549Z,100769.13
2018-07-22T22:47:50.337Z,100767.94
2018-07-22T22:50:18.848Z,100771.94
2018-07-22T22:52:47.542Z,100767.56
2018-07-22T22:55:16.393Z,100768.66
2018-07-22T22:57:56.001Z,100769.28
2018-07-22T23:00:24.885Z,100764.07
2018-07-22T23:02:53.437Z,100763.69
2018-07-22T23:05:21.917Z,100768.59
2018-07-22T23:07:51.195Z,100765.47
2018-07-22T23:10:19.713Z,100765.92
2018-07-22T23:12:48.176Z,100771.31
2018-07-22T23:15:16.938Z,100770.05
2018-07-22T23:17:45.765Z,100768.72
2018-07-22T23:20:14.571Z,100761.31
2018-07-22T23:22:43.309Z,100760.94
2018-07-22T23:25:12.107Z,100765.84
2018-07-22T23:27:41.677Z,100758.75
2018-07-22T23:30:10.677Z,100766.34
2018-07-22T23:32:39.392Z,100763.73
2018-07-22T23:35:08.257Z,100765.68
2018-07-22T23:37:36.766Z,100762.77
2018-07-22T23:40:05.509Z,100766.42
2018-07-22T23:42:34.442Z,100767.30
2018-07-22T23:45:03.332Z,100763.41
2018-07-22T23:47:32.225Z,100770.61
2018-07-22T23:50:01.143Z,100764.02
2018-07-22T23:52:30.095Z,100767.64
2018-07-22T23:54:58.534Z,100767.70
2018-07-22T23:57:27.281Z,100767.36
2018-07-22T23:59:56.137Z,100771.38
